sensor_id;sensor_type;location;lat;lon;timestamp;temperature;humidity
41168;DHT22;26906;45.658;9.272;2023-10-09T05:36:38;18.20;99.90
41168;DHT22;26906;45.658;9.272;2023-10-09T05:39:04;18.10;99.90
41168;DHT22;26906;45.658;9.272;2023-10-09T05:42:06;18.30;99.90
41168;DHT22;26906;45.658;9.272;2023-10-09T05:44:42;18.40;99.90
41168;DHT22;26906;45.658;9.272;2023-10-09T05:47:26;18.40;99.90
41168;DHT22;26906;45.658;9.272;2023-10-09T05:49:55;18.40;99.90
41168;DHT22;26906;45.658;9.272;2023-10-09T05:52:26;18.30;99.90
41168;DHT22;26906;45.658;9.272;2023-10-09T05:55:05;18.30;99.90
41168;DHT22;26906;45.658;9.272;2023-10-09T05:58:03;18.20;99.90
41168;DHT22;26906;45.658;9.272;2023-10-09T06:00:47;18.30;99.90
41168;DHT22;26906;45.658;9.272;2023-10-09T06:03:32;18.40;99.90
41168;DHT22;26906;45.658;9.272;2023-10-09T06:06:22;18.50;99.90
41168;DHT22;26906;45.658;9.272;2023-10-09T06:09:10;18.50;99.90
41168;DHT22;26906;45.658;9.272;2023-10-09T06:11:43;18.50;99.90
41168;DHT22;26906;45.658;9.272;2023-10-09T06:14:24;18.60;99.90
41168;DHT22;26906;45.658;9.272;2023-10-09T06:16:53;18.60;99.90
41168;DHT22;26906;45.658;9.272;2023-10-09T06:19:22;18.70;99.90
41168;DHT22;26906;45.658;9.272;2023-10-09T06:21:48;18.80;99.90
41168;DHT22;26906;45.658;9.272;2023-10-09T06:24:30;18.80;99.90
41168;DHT22;26906;45.658;9.272;2023-10-09T06:26:59;18.90;99.90
41168;DHT22;26906;45.658;9.272;2023-10-09T06:29:29;19.00;99.90
41168;DHT22;26906;45.658;9.272;2023-10-09T06:32:08;19.20;99.90
41168;DHT22;26906;45.658;9.272;2023-10-09T06:34:56;19.40;99.90
41168;DHT22;26906;45.658;9.272;2023-10-09T06:37:23;19.50;99.90
41168;DHT22;26906;45.658;9.272;2023-10-09T06:39:53;19.50;99.90
41168;DHT22;26906;45.658;9.272;2023-10-09T06:45:10;19.70;99.90
41168;DHT22;26906;45.658;9.272;2023-10-09T06:47:41;20.00;99.90
41168;DHT22;26906;45.658;9.272;2023-10-09T06:50:11;20.10;99.90
41168;DHT22;26906;45.658;9.272;2023-10-09T06:52:54;20.30;99.90
41168;DHT22;26906;45.658;9.272;2023-10-09T06:55:24;20.50;99.90
41168;DHT22;26906;45.658;9.272;2023-10-09T06:58:14;20.70;99.90
41168;DHT22;26906;45.658;9.272;2023-10-09T07:00:49;20.90;99.90
41168;DHT22;26906;45.658;9.272;2023-10-09T07:03:20;21.00;99.90
41168;DHT22;26906;45.658;9.272;2023-10-09T07:06:10;21.10;99.90
41168;DHT22;26906;45.658;9.272;2023-10-09T07:08:57;21.30;99.90
41168;DHT22;26906;45.658;9.272;2023-10-09T07:11:43;21.40;99.90
41168;DHT22;26906;45.658;9.272;2023-10-09T07:14:23;21.50;99.90
41168;DHT22;26906;45.658;9.272;2023-10-09T07:17:06;21.70;99.90
41168;DHT22;26906;45.658;9.272;2023-10-09T07:19:42;21.90;99.90
41168;DHT22;26906;45.658;9.272;2023-10-09T07:22:09;22.10;99.90
41168;DHT22;26906;45.658;9.272;2023-10-09T07:24:56;22.40;99.90
41168;DHT22;26906;45.658;9.272;2023-10-09T07:27:29;22.50;99.90
41168;DHT22;26906;45.658;9.272;2023-10-09T07:30:18;22.80;99.90
41168;DHT22;26906;45.658;9.272;2023-10-09T07:33:04;23.20;99.90
41168;DHT22;26906;45.658;9.272;2023-10-09T07:35:33;23.40;99.90
41168;DHT22;26906;45.658;9.272;2023-10-09T07:38:14;23.60;99.90
41168;DHT22;26906;45.658;9.272;2023-10-09T07:40:45;23.70;99.90
41168;DHT22;26906;45.658;9.272;2023-10-09T07:43:35;23.80;99.90
41168;DHT22;26906;45.658;9.272;2023-10-09T07:46:05;24.00;99.90
41168;DHT22;26906;45.658;9.272;2023-10-09T07:48:50;24.20;99.90
41168;DHT22;26906;45.658;9.272;2023-10-09T07:51:19;24.40;99.90
41168;DHT22;26906;45.658;9.272;2023-10-09T07:54:05;24.50;99.90
41168;DHT22;26906;45.658;9.272;2023-10-09T07:56:38;24.80;99.90
41168;DHT22;26906;45.658;9.272;2023-10-09T07:59:14;24.90;99.90
41168;DHT22;26906;45.658;9.272;2023-10-09T08:04:21;25.20;99.90
41168;DHT22;26906;45.658;9.272;2023-10-09T08:07:03;25.30;99.90
41168;DHT22;26906;45.658;9.272;2023-10-09T08:09:32;25.40;99.90
41168;DHT22;26906;45.658;9.272;2023-10-09T08:12:27;25.50;99.90
41168;DHT22;26906;45.658;9.272;2023-10-09T08:15:25;25.60;99.90
41168;DHT22;26906;45.658;9.272;2023-10-09T08:18:16;25.70;99.90
41168;DHT22;26906;45.658;9.272;2023-10-09T08:20:54;25.90;99.90
41168;DHT22;26906;45.658;9.272;2023-10-09T08:23:25;26.10;99.90
41168;DHT22;26906;45.658;9.272;2023-10-09T08:26:15;26.10;99.90
41168;DHT22;26906;45.658;9.272;2023-10-09T08:28:44;26.10;99.90
41168;DHT22;26906;45.658;9.272;2023-10-09T08:31:15;26.30;99.90
41168;DHT22;26906;45.658;9.272;2023-10-09T08:34:13;26.30;99.90
41168;DHT22;26906;45.658;9.272;2023-10-09T08:36:52;26.30;99.90
41168;DHT22;26906;45.658;9.272;2023-10-09T08:39:21;26.30;99.90
41168;DHT22;26906;45.658;9.272;2023-10-09T08:41:58;26.40;99.90
41168;DHT22;26906;45.658;9.272;2023-10-09T08:44:27;26.60;99.90
41168;DHT22;26906;45.658;9.272;2023-10-09T08:46:55;26.70;99.90
41168;DHT22;26906;45.658;9.272;2023-10-09T08:49:23;26.80;99.90
41168;DHT22;26906;45.658;9.272;2023-10-09T08:51:49;27.00;99.90
41168;DHT22;26906;45.658;9.272;2023-10-09T08:54:18;26.90;99.90
41168;DHT22;26906;45.658;9.272;2023-10-09T08:56:45;27.00;99.90
41168;DHT22;26906;45.658;9.272;2023-10-09T08:59:19;27.00;99.90
41168;DHT22;26906;45.658;9.272;2023-10-09T09:01:49;27.00;99.90
41168;DHT22;26906;45.658;9.272;2023-10-09T09:04:37;27.20;99.90
41168;DHT22;26906;45.658;9.272;2023-10-09T09:07:25;27.30;99.90
41168;DHT22;26906;45.658;9.272;2023-10-09T09:09:57;27.30;99.90
41168;DHT22;26906;45.658;9.272;2023-10-09T09:12:27;27.40;99.90
41168;DHT22;26906;45.658;9.272;2023-10-09T09:14:56;27.40;99.90
41168;DHT22;26906;45.658;9.272;2023-10-09T09:17:25;27.30;99.90
41168;DHT22;26906;45.658;9.272;2023-10-09T09:19:56;27.20;99.90
41168;DHT22;26906;45.658;9.272;2023-10-09T09:22:23;27.20;99.90
41168;DHT22;26906;45.658;9.272;2023-10-09T09:24:58;27.30;99.90
41168;DHT22;26906;45.658;9.272;2023-10-09T09:27:46;27.50;99.90
41168;DHT22;26906;45.658;9.272;2023-10-09T09:30:26;27.60;99.90
41168;DHT22;26906;45.658;9.272;2023-10-09T09:32:57;27.60;99.90
41168;DHT22;26906;45.658;9.272;2023-10-09T09:36:04;27.60;99.90
41168;DHT22;26906;45.658;9.272;2023-10-09T09:38:32;27.70;99.90
41168;DHT22;26906;45.658;9.272;2023-10-09T09:41:17;27.90;99.90
41168;DHT22;26906;45.658;9.272;2023-10-09T09:43:55;28.00;99.90
41168;DHT22;26906;45.658;9.272;2023-10-09T09:46:22;28.10;99.90
41168;DHT22;26906;45.658;9.272;2023-10-09T09:49:03;28.30;99.90
41168;DHT22;26906;45.658;9.272;2023-10-09T09:51:32;28.40;99.90
41168;DHT22;26906;45.658;9.272;2023-10-09T09:53:58;28.50;99.90
41168;DHT22;26906;45.658;9.272;2023-10-09T09:56:25;28.70;99.90
41168;DHT22;26906;45.658;9.272;2023-10-09T09:58:52;28.90;99.90
41168;DHT22;26906;45.658;9.272;2023-10-09T10:01:32;28.90;99.90
41168;DHT22;26906;45.658;9.272;2023-10-09T10:04:15;29.00;99.90
41168;DHT22;26906;45.658;9.272;2023-10-09T10:06:48;29.00;99.90
41168;DHT22;26906;45.658;9.272;2023-10-09T10:09:35;29.10;99.90
41168;DHT22;26906;45.658;9.272;2023-10-09T10:12:05;29.20;99.90
41168;DHT22;26906;45.658;9.272;2023-10-09T10:17:19;29.50;99.90
41168;DHT22;26906;45.658;9.272;2023-10-09T10:20:07;29.50;99.90
41168;DHT22;26906;45.658;9.272;2023-10-09T10:23:36;29.60;99.90
41168;DHT22;26906;45.658;9.272;2023-10-09T10:25:37;29.70;99.90
41168;DHT22;26906;45.658;9.272;2023-10-09T10:28:27;29.80;99.90
41168;DHT22;26906;45.658;9.272;2023-10-09T10:31:09;29.90;99.90
41168;DHT22;26906;45.658;9.272;2023-10-09T10:36:24;30.00;99.90
41168;DHT22;26906;45.658;9.272;2023-10-09T10:39:08;30.00;99.90
41168;DHT22;26906;45.658;9.272;2023-10-09T10:41:56;30.20;99.90
41168;DHT22;26906;45.658;9.272;2023-10-09T10:44:30;30.30;99.90
41168;DHT22;26906;45.658;9.272;2023-10-09T10:47:06;30.50;99.90
41168;DHT22;26906;45.658;9.272;2023-10-09T10:49:54;30.60;99.90
41168;DHT22;26906;45.658;9.272;2023-10-09T10:52:36;30.80;99.90
41168;DHT22;26906;45.658;9.272;2023-10-09T10:55:12;30.80;99.90
41168;DHT22;26906;45.658;9.272;2023-10-09T10:58:15;30.90;99.90
41168;DHT22;26906;45.658;9.272;2023-10-09T11:00:57;30.90;99.90
41168;DHT22;26906;45.658;9.272;2023-10-09T11:03:25;30.90;99.90
41168;DHT22;26906;45.658;9.272;2023-10-09T11:06:30;31.00;99.90
41168;DHT22;26906;45.658;9.272;2023-10-09T11:09:09;31.00;99.90
41168;DHT22;26906;45.658;9.272;2023-10-09T11:11:55;31.10;99.90
41168;DHT22;26906;45.658;9.272;2023-10-09T11:14:46;31.10;99.90
41168;DHT22;26906;45.658;9.272;2023-10-09T11:17:37;31.00;99.90
41168;DHT22;26906;45.658;9.272;2023-10-09T11:20:04;31.10;99.90
41168;DHT22;26906;45.658;9.272;2023-10-09T11:22:51;31.20;99.90
41168;DHT22;26906;45.658;9.272;2023-10-09T11:25:39;31.20;99.90
41168;DHT22;26906;45.658;9.272;2023-10-09T11:28:23;31.40;99.90
41168;DHT22;26906;45.658;9.272;2023-10-09T11:31:09;31.40;99.90
41168;DHT22;26906;45.658;9.272;2023-10-09T11:33:50;31.40;99.90
41168;DHT22;26906;45.658;9.272;2023-10-09T11:36:21;31.50;99.90
41168;DHT22;26906;45.658;9.272;2023-10-09T11:38:57;31.50;99.90
41168;DHT22;26906;45.658;9.272;2023-10-09T11:41:42;31.40;99.90
41168;DHT22;26906;45.658;9.272;2023-10-09T11:44:08;31.40;99.90
41168;DHT22;26906;45.658;9.272;2023-10-09T11:47:06;31.50;99.90
41168;DHT22;26906;45.658;9.272;2023-10-09T11:52:23;31.60;99.90
41168;DHT22;26906;45.658;9.272;2023-10-09T11:55:06;31.80;99.90
41168;DHT22;26906;45.658;9.272;2023-10-09T12:36:04;32.70;99.90
41168;DHT22;26906;45.658;9.272;2023-10-09T12:51:14;32.70;99.80
41168;DHT22;26906;45.658;9.272;2023-10-09T13:09:30;32.70;98.70
41168;DHT22;26906;45.658;9.272;2023-10-09T13:20:54;32.60;98.00
41168;DHT22;26906;45.658;9.272;2023-10-09T13:24:15;32.70;98.00
41168;DHT22;26906;45.658;9.272;2023-10-09T13:27:23;32.50;97.40
41168;DHT22;26906;45.658;9.272;2023-10-09T13:29:50;32.60;97.60
41168;DHT22;26906;45.658;9.272;2023-10-09T13:32:18;32.70;98.10
41168;DHT22;26906;45.658;9.272;2023-10-09T13:34:51;32.70;97.50
41168;DHT22;26906;45.658;9.272;2023-10-09T13:40:59;32.70;96.10
41168;DHT22;26906;45.658;9.272;2023-10-09T13:43:29;32.60;96.00
41168;DHT22;26906;45.658;9.272;2023-10-09T13:45:55;32.60;96.50
41168;DHT22;26906;45.658;9.272;2023-10-09T13:48:22;32.60;96.90
41168;DHT22;26906;45.658;9.272;2023-10-09T13:50:51;32.40;96.50
41168;DHT22;26906;45.658;9.272;2023-10-09T13:53:22;32.30;96.40
41168;DHT22;26906;45.658;9.272;2023-10-09T13:55:53;32.40;96.60
41168;DHT22;26906;45.658;9.272;2023-10-09T13:58:21;32.40;97.00
41168;DHT22;26906;45.658;9.272;2023-10-09T14:00:47;32.40;97.10
41168;DHT22;26906;45.658;9.272;2023-10-09T14:03:18;32.20;96.30
41168;DHT22;26906;45.658;9.272;2023-10-09T14:06:04;32.00;96.20
41168;DHT22;26906;45.658;9.272;2023-10-09T14:08:39;32.00;96.60
41168;DHT22;26906;45.658;9.272;2023-10-09T14:11:10;32.10;96.40
41168;DHT22;26906;45.658;9.272;2023-10-09T14:13:42;32.00;96.50
41168;DHT22;26906;45.658;9.272;2023-10-09T14:16:09;32.00;96.20
41168;DHT22;26906;45.658;9.272;2023-10-09T14:18:51;31.90;97.00
41168;DHT22;26906;45.658;9.272;2023-10-09T14:21:23;31.70;97.30
41168;DHT22;26906;45.658;9.272;2023-10-09T14:23:54;31.60;96.90
41168;DHT22;26906;45.658;9.272;2023-10-09T14:26:32;31.40;96.90
41168;DHT22;26906;45.658;9.272;2023-10-09T14:29:00;31.10;96.70
41168;DHT22;26906;45.658;9.272;2023-10-09T14:35:25;31.20;97.20
41168;DHT22;26906;45.658;9.272;2023-10-09T14:38:44;31.10;97.10
41168;DHT22;26906;45.658;9.272;2023-10-09T14:41:30;31.00;97.30
41168;DHT22;26906;45.658;9.272;2023-10-09T14:44:28;31.00;97.80
41168;DHT22;26906;45.658;9.272;2023-10-09T14:46:59;30.90;97.80
41168;DHT22;26906;45.658;9.272;2023-10-09T14:49:36;30.90;97.70
41168;DHT22;26906;45.658;9.272;2023-10-09T14:52:15;30.70;98.00
41168;DHT22;26906;45.658;9.272;2023-10-09T14:54:46;30.70;98.20
41168;DHT22;26906;45.658;9.272;2023-10-09T14:57:13;30.60;98.60
41168;DHT22;26906;45.658;9.272;2023-10-09T14:59:40;30.50;98.90
41168;DHT22;26906;45.658;9.272;2023-10-09T15:02:06;30.50;98.80
41168;DHT22;26906;45.658;9.272;2023-10-09T15:04:41;30.40;99.00
41168;DHT22;26906;45.658;9.272;2023-10-09T15:07:07;30.30;99.20
41168;DHT22;26906;45.658;9.272;2023-10-09T15:09:35;30.10;99.00
41168;DHT22;26906;45.658;9.272;2023-10-09T15:12:09;30.00;98.90
41168;DHT22;26906;45.658;9.272;2023-10-09T15:14:36;30.00;99.00
41168;DHT22;26906;45.658;9.272;2023-10-09T15:17:03;30.00;99.30
41168;DHT22;26906;45.658;9.272;2023-10-09T15:19:32;29.90;99.40
41168;DHT22;26906;45.658;9.272;2023-10-09T15:21:59;29.90;99.80
41168;DHT22;26906;45.658;9.272;2023-10-09T15:24:25;29.90;99.90
41168;DHT22;26906;45.658;9.272;2023-10-09T15:26:53;29.90;99.90
41168;DHT22;26906;45.658;9.272;2023-10-09T15:29:24;29.80;99.90
41168;DHT22;26906;45.658;9.272;2023-10-09T15:32:01;29.70;99.90
41168;DHT22;26906;45.658;9.272;2023-10-09T15:34:34;29.70;99.90
41168;DHT22;26906;45.658;9.272;2023-10-09T15:37:06;29.70;99.90
41168;DHT22;26906;45.658;9.272;2023-10-09T15:39:41;29.60;99.90
41168;DHT22;26906;45.658;9.272;2023-10-09T15:42:09;29.60;99.90
41168;DHT22;26906;45.658;9.272;2023-10-09T15:44:40;29.50;99.90
41168;DHT22;26906;45.658;9.272;2023-10-09T15:47:10;29.50;99.90
41168;DHT22;26906;45.658;9.272;2023-10-09T15:49:42;29.40;99.90
41168;DHT22;26906;45.658;9.272;2023-10-09T15:52:10;29.20;99.90
41168;DHT22;26906;45.658;9.272;2023-10-09T15:54:40;29.10;99.90
41168;DHT22;26906;45.658;9.272;2023-10-09T15:57:09;29.10;99.90
41168;DHT22;26906;45.658;9.272;2023-10-09T15:59:39;29.00;99.90
41168;DHT22;26906;45.658;9.272;2023-10-09T16:02:05;28.90;99.90
41168;DHT22;26906;45.658;9.272;2023-10-09T16:04:32;28.80;99.90
41168;DHT22;26906;45.658;9.272;2023-10-09T16:07:02;28.70;99.90
41168;DHT22;26906;45.658;9.272;2023-10-09T16:09:30;28.60;99.90
41168;DHT22;26906;45.658;9.272;2023-10-09T16:12:00;28.60;99.90
41168;DHT22;26906;45.658;9.272;2023-10-09T16:14:26;28.50;99.90
41168;DHT22;26906;45.658;9.272;2023-10-09T16:16:52;28.40;99.90
41168;DHT22;26906;45.658;9.272;2023-10-09T16:19:21;28.40;99.90
41168;DHT22;26906;45.658;9.272;2023-10-09T16:21:49;28.30;99.90
41168;DHT22;26906;45.658;9.272;2023-10-09T16:24:14;28.20;99.90
41168;DHT22;26906;45.658;9.272;2023-10-09T16:26:41;28.20;99.90
41168;DHT22;26906;45.658;9.272;2023-10-09T16:29:10;28.10;99.90
41168;DHT22;26906;45.658;9.272;2023-10-09T16:31:37;27.90;99.90
41168;DHT22;26906;45.658;9.272;2023-10-09T16:34:03;27.80;99.90
41168;DHT22;26906;45.658;9.272;2023-10-09T16:36:30;27.60;99.90
41168;DHT22;26906;45.658;9.272;2023-10-09T16:38:56;27.30;99.90
41168;DHT22;26906;45.658;9.272;2023-10-09T16:41:25;27.10;99.90
41168;DHT22;26906;45.658;9.272;2023-10-09T16:43:52;26.90;99.90
41168;DHT22;26906;45.658;9.272;2023-10-09T16:46:21;26.80;99.90
41168;DHT22;26906;45.658;9.272;2023-10-09T16:48:49;26.70;99.90
41168;DHT22;26906;45.658;9.272;2023-10-09T16:51:21;26.70;99.90
41168;DHT22;26906;45.658;9.272;2023-10-09T16:53:50;26.70;99.90
41168;DHT22;26906;45.658;9.272;2023-10-09T16:56:22;26.70;99.90
41168;DHT22;26906;45.658;9.272;2023-10-09T16:58:49;26.70;99.90
41168;DHT22;26906;45.658;9.272;2023-10-09T17:01:17;26.50;99.90
41168;DHT22;26906;45.658;9.272;2023-10-09T17:03:47;26.40;99.90
41168;DHT22;26906;45.658;9.272;2023-10-09T17:06:20;26.20;99.90
41168;DHT22;26906;45.658;9.272;2023-10-09T17:08:47;26.10;99.90
41168;DHT22;26906;45.658;9.272;2023-10-09T17:11:17;25.90;99.90
41168;DHT22;26906;45.658;9.272;2023-10-09T17:13:46;25.80;99.90
41168;DHT22;26906;45.658;9.272;2023-10-09T17:16:16;25.70;99.90
41168;DHT22;26906;45.658;9.272;2023-10-09T17:18:44;25.60;99.90
41168;DHT22;26906;45.658;9.272;2023-10-09T17:21:10;25.50;99.90
41168;DHT22;26906;45.658;9.272;2023-10-09T17:23:41;25.50;99.90
41168;DHT22;26906;45.658;9.272;2023-10-09T17:26:13;25.40;99.90
41168;DHT22;26906;45.658;9.272;2023-10-09T17:28:40;25.40;99.90
41168;DHT22;26906;45.658;9.272;2023-10-09T17:31:07;25.40;99.90
41168;DHT22;26906;45.658;9.272;2023-10-09T17:33:32;25.30;99.90
41168;DHT22;26906;45.658;9.272;2023-10-09T17:36:05;25.30;99.90
41168;DHT22;26906;45.658;9.272;2023-10-09T17:38:31;25.20;99.90
41168;DHT22;26906;45.658;9.272;2023-10-09T17:40:58;25.10;99.90
41168;DHT22;26906;45.658;9.272;2023-10-09T17:43:25;25.10;99.90
41168;DHT22;26906;45.658;9.272;2023-10-09T17:45:51;25.00;99.90
41168;DHT22;26906;45.658;9.272;2023-10-09T17:48:21;24.90;99.90
41168;DHT22;26906;45.658;9.272;2023-10-09T17:50:47;24.80;99.90
41168;DHT22;26906;45.658;9.272;2023-10-09T17:53:13;24.90;99.90
41168;DHT22;26906;45.658;9.272;2023-10-09T17:55:40;24.80;99.90
41168;DHT22;26906;45.658;9.272;2023-10-09T17:58:07;24.70;99.90
41168;DHT22;26906;45.658;9.272;2023-10-09T18:00:40;24.60;99.90
41168;DHT22;26906;45.658;9.272;2023-10-09T18:03:06;24.50;99.90
41168;DHT22;26906;45.658;9.272;2023-10-09T18:05:33;24.50;99.90
41168;DHT22;26906;45.658;9.272;2023-10-09T18:08:02;24.50;99.90
41168;DHT22;26906;45.658;9.272;2023-10-09T18:10:37;24.50;99.90
41168;DHT22;26906;45.658;9.272;2023-10-09T18:13:07;24.40;99.90
41168;DHT22;26906;45.658;9.272;2023-10-09T18:15:33;24.40;99.90
41168;DHT22;26906;45.658;9.272;2023-10-09T18:18:02;24.30;99.90
41168;DHT22;26906;45.658;9.272;2023-10-09T18:20:31;24.30;99.90
41168;DHT22;26906;45.658;9.272;2023-10-09T18:22:57;24.30;99.90
41168;DHT22;26906;45.658;9.272;2023-10-09T18:25:25;24.20;99.90
41168;DHT22;26906;45.658;9.272;2023-10-09T18:27:51;24.10;99.90
41168;DHT22;26906;45.658;9.272;2023-10-09T18:30:16;24.10;99.90
41168;DHT22;26906;45.658;9.272;2023-10-09T18:32:46;24.00;99.90
41168;DHT22;26906;45.658;9.272;2023-10-09T18:35:11;24.00;99.90
41168;DHT22;26906;45.658;9.272;2023-10-09T18:37:41;24.00;99.90
41168;DHT22;26906;45.658;9.272;2023-10-09T18:40:08;23.90;99.90
41168;DHT22;26906;45.658;9.272;2023-10-09T18:42:37;23.90;99.90
41168;DHT22;26906;45.658;9.272;2023-10-09T18:45:06;23.90;99.90
41168;DHT22;26906;45.658;9.272;2023-10-09T18:47:37;23.80;99.90
41168;DHT22;26906;45.658;9.272;2023-10-09T18:50:12;23.80;99.90
41168;DHT22;26906;45.658;9.272;2023-10-09T18:52:42;23.80;99.90
41168;DHT22;26906;45.658;9.272;2023-10-09T18:55:11;23.80;99.90
41168;DHT22;26906;45.658;9.272;2023-10-09T18:57:39;23.60;99.90
41168;DHT22;26906;45.658;9.272;2023-10-09T19:00:06;23.60;99.90
41168;DHT22;26906;45.658;9.272;2023-10-09T19:02:41;23.50;99.90
41168;DHT22;26906;45.658;9.272;2023-10-09T19:05:07;23.50;99.90
41168;DHT22;26906;45.658;9.272;2023-10-09T19:07:36;23.50;99.90
41168;DHT22;26906;45.658;9.272;2023-10-09T19:10:04;23.40;99.90
41168;DHT22;26906;45.658;9.272;2023-10-09T19:12:36;23.40;99.90
41168;DHT22;26906;45.658;9.272;2023-10-09T19:15:03;23.30;99.90
41168;DHT22;26906;45.658;9.272;2023-10-09T19:17:35;23.30;99.90
41168;DHT22;26906;45.658;9.272;2023-10-09T19:20:04;23.20;99.90
41168;DHT22;26906;45.658;9.272;2023-10-09T19:22:31;23.20;99.90
41168;DHT22;26906;45.658;9.272;2023-10-09T19:24:58;23.10;99.90
41168;DHT22;26906;45.658;9.272;2023-10-09T19:27:24;23.10;99.90
41168;DHT22;26906;45.658;9.272;2023-10-09T19:29:54;23.10;99.90
41168;DHT22;26906;45.658;9.272;2023-10-09T19:32:20;23.00;99.90
41168;DHT22;26906;45.658;9.272;2023-10-09T19:34:46;23.00;99.90
41168;DHT22;26906;45.658;9.272;2023-10-09T19:37:12;23.00;99.90
41168;DHT22;26906;45.658;9.272;2023-10-09T19:39:38;22.90;99.90
41168;DHT22;26906;45.658;9.272;2023-10-09T19:42:06;22.90;99.90
41168;DHT22;26906;45.658;9.272;2023-10-09T19:44:33;23.00;99.90
41168;DHT22;26906;45.658;9.272;2023-10-09T19:46:59;23.00;99.90
41168;DHT22;26906;45.658;9.272;2023-10-09T19:49:24;22.90;99.90
41168;DHT22;26906;45.658;9.272;2023-10-09T19:51:52;22.90;99.90
41168;DHT22;26906;45.658;9.272;2023-10-09T19:54:17;22.80;99.90
41168;DHT22;26906;45.658;9.272;2023-10-09T19:56:50;22.70;99.90
41168;DHT22;26906;45.658;9.272;2023-10-09T19:59:17;22.60;99.90
41168;DHT22;26906;45.658;9.272;2023-10-09T20:01:42;22.60;99.90
41168;DHT22;26906;45.658;9.272;2023-10-09T20:04:08;22.60;99.90
41168;DHT22;26906;45.658;9.272;2023-10-09T20:06:34;22.50;99.90
41168;DHT22;26906;45.658;9.272;2023-10-09T20:09:01;22.50;99.90
41168;DHT22;26906;45.658;9.272;2023-10-09T20:11:33;22.60;99.90
41168;DHT22;26906;45.658;9.272;2023-10-09T20:13:59;22.50;99.90
